Time;durP1;ratioP1;P1;durP2;ratioP2;P2;SDS_P1;SDS_P2;PMS_P1;PMS_P2;Temp;Humidity;BMP_temperature;BMP_pressure;BME280_temperature;BME280_humidity;BME280_pressure;Samples;Min_cycle;Max_cycle;Signal;HPM_P1;HPM_P2
2024/04/16 00:02:40;;;;;;;3.30;2.17;;;;;;;6.07;100.00;99615.03;6332836;27;20659;-67
2024/04/16 00:06:03;;;;;;;4.23;3.10;;;;;;;5.98;100.00;99616.72;6364490;27;20273;-68
2024/04/16 00:09:23;;;;;;;3.53;2.93;;;;;;;5.98;100.00;99607.84;6351179;27;20285;-67
2024/04/16 00:12:48;;;;;;;4.20;2.97;;;;;;;6.17;100.00;99605.19;6350795;27;22292;-68
2024/04/16 00:16:32;;;;;;;3.60;2.33;;;;;;;6.07;100.00;99613.19;6341036;27;20632;-68
2024/04/16 00:19:55;;;;;;;9.27;2.97;;;;;;;6.03;100.00;99627.00;6361539;27;20284;-67
2024/04/16 00:23:15;;;;;;;4.13;2.70;;;;;;;6.03;100.00;99609.09;6362016;27;20384;-67
2024/04/16 00:26:38;;;;;;;4.67;4.03;;;;;;;6.02;100.00;99611.94;6351688;27;20276;-67
2024/04/16 00:30:03;;;;;;;5.77;3.33;;;;;;;6.04;100.00;99602.78;6351898;27;20265;-67
2024/04/16 00:33:23;;;;;;;4.80;3.80;;;;;;;6.06;100.00;99606.16;6316204;27;20625;-68
2024/04/16 00:36:45;;;;;;;3.40;3.10;;;;;;;5.98;100.00;99600.66;6348461;27;20261;-67
2024/04/16 00:40:05;;;;;;;6.57;3.67;;;;;;;6.02;100.00;99603.91;6344836;27;20329;-67
2024/04/16 00:43:28;;;;;;;3.27;3.03;;;;;;;5.97;100.00;99604.31;6354460;27;20308;-67
2024/04/16 00:46:53;;;;;;;2.87;2.63;;;;;;;6.04;100.00;99608.13;6349014;27;20273;-68
2024/04/16 00:50:16;;;;;;;2.90;2.60;;;;;;;5.99;100.00;99597.00;6345896;27;20281;-67
2024/04/16 00:53:40;;;;;;;2.63;2.43;;;;;;;6.13;100.00;99619.84;6353738;27;20473;-67
2024/04/16 00:57:00;;;;;;;5.13;2.67;;;;;;;5.99;100.00;99602.34;6352524;27;20265;-67
2024/04/16 01:00:23;;;;;;;3.90;2.13;;;;;;;6.00;100.00;99597.84;6341546;27;20490;-67
2024/04/16 01:03:48;;;;;;;4.07;2.67;;;;;;;5.94;100.00;99604.59;6351020;27;20292;-67
2024/04/16 01:07:11;;;;;;;1.77;1.63;;;;;;;5.86;100.00;99615.13;6354606;27;20270;-67
2024/04/16 01:10:37;;;;;;;2.83;2.63;;;;;;;5.77;100.00;99599.88;6353564;27;20317;-68
2024/04/16 01:13:59;;;;;;;2.83;1.90;;;;;;;5.79;100.00;99599.75;6362440;27;20288;-67
2024/04/16 01:17:20;;;;;;;2.37;2.13;;;;;;;5.84;100.00;99579.66;6342355;27;20273;-68
2024/04/16 01:20:46;;;;;;;3.10;2.10;;;;;;;5.77;100.00;99589.19;6343711;27;20270;-67
2024/04/16 01:24:10;;;;;;;2.13;1.93;;;;;;;5.85;100.00;99569.81;6348195;27;20523;-67
2024/04/16 01:27:30;;;;;;;1.93;1.67;;;;;;;5.74;100.00;99577.94;6349073;27;20269;-67
2024/04/16 01:30:52;;;;;;;2.20;1.83;;;;;;;5.77;100.00;99597.22;6348597;27;20269;-68
2024/04/16 01:34:15;;;;;;;4.23;3.50;;;;;;;5.72;100.00;99569.19;6355317;27;20276;-67
2024/04/16 01:37:34;;;;;;;3.80;3.50;;;;;;;5.76;100.00;99579.47;6347581;27;20277;-67
2024/04/16 01:40:59;;;;;;;1.43;1.33;;;;;;;5.79;100.00;99584.56;6351597;27;20273;-68
2024/04/16 01:44:19;;;;;;;2.27;2.17;;;;;;;5.78;100.00;99574.81;6354879;27;20265;-68
2024/04/16 01:47:42;;;;;;;7.57;3.00;;;;;;;5.92;100.00;99582.50;6350450;27;20276;-68
2024/04/16 01:51:04;;;;;;;2.30;2.20;;;;;;;5.95;100.00;99574.19;6349718;27;20279;-67
2024/04/16 01:54:28;;;;;;;3.00;2.73;;;;;;;5.98;100.00;99589.97;6359744;27;20293;-67
2024/04/16 01:57:54;;;;;;;2.90;2.23;;;;;;;5.91;100.00;99582.63;6354798;27;20261;-67
2024/04/16 02:01:14;;;;;;;2.20;1.63;;;;;;;5.93;100.00;99576.16;6347328;27;20269;-68
2024/04/16 02:04:36;;;;;;;5.13;3.50;;;;;;;5.88;100.00;99577.56;6322916;27;20258;-67
2024/04/16 02:07:59;;;;;;;4.27;2.50;;;;;;;5.89;100.00;99566.72;6295487;27;20281;-67
2024/04/16 02:11:22;;;;;;;4.33;3.10;;;;;;;5.88;100.00;99564.19;6305936;27;20283;-67
2024/04/16 02:14:47;;;;;;;2.50;2.30;;;;;;;5.92;100.00;99571.81;6323700;27;20273;-67
2024/04/16 02:18:07;;;;;;;2.23;2.03;;;;;;;5.76;100.00;99563.41;6347771;27;20805;-68
2024/04/16 02:21:29;;;;;;;2.47;2.27;;;;;;;5.88;100.00;99566.88;6339337;27;22741;-68
2024/04/16 02:24:51;;;;;;;3.70;2.47;;;;;;;5.77;100.00;99581.16;6362183;27;20265;-67
2024/04/16 02:28:11;;;;;;;4.63;2.83;;;;;;;5.85;100.00;99577.81;6351612;27;20261;-67
2024/04/16 02:31:36;;;;;;;2.97;2.77;;;;;;;5.73;100.00;99594.94;6346792;27;20296;-67
2024/04/16 02:34:58;;;;;;;3.03;2.83;;;;;;;5.81;100.00;99579.06;6346235;27;20281;-67
2024/04/16 02:38:20;;;;;;;3.00;2.80;;;;;;;5.75;100.00;99584.97;6355698;27;20487;-67
2024/04/16 02:41:43;;;;;;;4.70;2.33;;;;;;;5.83;100.00;99577.09;6358250;27;20265;-67
2024/04/16 02:45:04;;;;;;;4.13;3.43;;;;;;;5.88;100.00;99583.75;6352610;27;20280;-67
2024/04/16 02:48:29;;;;;;;6.50;2.63;;;;;;;5.89;100.00;99580.09;6360316;27;20321;-68
2024/04/16 02:51:49;;;;;;;3.73;2.60;;;;;;;5.89;100.00;99582.75;6360434;27;20273;-67
2024/04/16 02:55:11;;;;;;;4.77;3.03;;;;;;;5.91;100.00;99587.97;6353569;27;20269;-68
2024/04/16 02:58:33;;;;;;;3.33;2.23;;;;;;;5.93;100.00;99586.84;6364942;27;20284;-67
2024/04/16 03:01:56;;;;;;;5.13;2.77;;;;;;;5.96;100.00;99580.38;6353646;27;20340;-67
2024/04/16 03:05:21;;;;;;;2.73;2.53;;;;;;;5.95;100.00;99579.53;6339098;27;20280;-68
2024/04/16 03:08:43;;;;;;;4.63;2.57;;;;;;;5.91;100.00;99582.63;6344290;27;20269;-67
2024/04/16 03:12:06;;;;;;;2.70;2.50;;;;;;;5.86;100.00;99583.03;6354253;27;20284;-67
2024/04/16 03:15:29;;;;;;;3.13;2.83;;;;;;;5.95;100.00;99582.22;6360118;27;20673;-67
2024/04/16 03:18:48;;;;;;;3.37;3.10;;;;;;;5.89;100.00;99585.44;6354721;27;20286;-67
2024/04/16 03:22:13;;;;;;;2.70;2.00;;;;;;;5.93;100.00;99588.66;6324809;27;20265;-67
2024/04/16 03:25:40;;;;;;;3.83;2.47;;;;;;;5.99;100.00;99572.91;6347239;27;20609;-67
2024/04/16 03:29:02;;;;;;;2.60;2.40;;;;;;;5.98;100.00;99557.88;6351959;27;20620;-67
2024/04/16 03:32:22;;;;;;;7.00;3.20;;;;;;;6.01;100.00;99578.13;6334699;27;20266;-65
2024/04/16 03:35:44;;;;;;;4.57;3.10;;;;;;;6.01;100.00;99578.97;6355005;27;20644;-67
2024/04/16 03:39:09;;;;;;;3.00;2.70;;;;;;;5.95;100.00;99582.22;6355750;27;20281;-67
2024/04/16 03:42:31;;;;;;;1.97;1.87;;;;;;;5.88;100.00;99580.25;6324976;27;20265;-66
2024/04/16 03:45:54;;;;;;;2.60;2.37;;;;;;;5.91;100.00;99593.31;6317689;27;20307;-67
2024/04/16 03:49:17;;;;;;;3.50;3.20;;;;;;;5.97;100.00;99598.09;6345547;27;20257;-67
2024/04/16 03:52:40;;;;;;;3.03;2.50;;;;;;;6.04;100.00;99604.59;6358673;27;20264;-67
2024/04/16 03:56:04;;;;;;;2.97;2.77;;;;;;;5.99;100.00;99604.16;6357187;27;20556;-67
2024/04/16 03:59:37;;;;;;;4.07;3.67;;;;;;;6.08;100.00;99624.75;6360045;27;20300;-67
2024/04/16 04:02:57;;;;;;;4.30;4.00;;;;;;;6.02;100.00;99604.75;6341438;27;20277;-67
2024/04/16 04:06:20;;;;;;;3.50;3.20;;;;;;;6.12;100.00;99608.28;6340852;27;20273;-68
2024/04/16 04:09:39;;;;;;;3.33;3.03;;;;;;;6.15;100.00;99607.16;6345579;27;20273;-67
2024/04/16 04:13:04;;;;;;;3.60;3.27;;;;;;;6.25;100.00;99611.53;6351802;27;20921;-66
2024/04/16 04:16:27;;;;;;;4.03;2.80;;;;;;;6.17;100.00;99618.56;6351604;27;20269;-67
2024/04/16 04:19:46;;;;;;;3.83;2.20;;;;;;;6.18;100.00;99621.09;6342544;27;21007;-67
2024/04/16 04:23:09;;;;;;;2.97;2.77;;;;;;;6.14;100.00;99621.50;6357803;27;20494;-67
2024/04/16 04:26:31;;;;;;;1.90;1.80;;;;;;;6.10;100.00;99620.94;6347737;27;20276;-67
2024/04/16 04:29:56;;;;;;;2.93;2.73;;;;;;;6.12;100.00;99618.97;6365394;27;20272;-67
2024/04/16 04:33:19;;;;;;;3.07;2.00;;;;;;;6.16;100.00;99617.72;6365097;27;20338;-66
2024/04/16 04:36:41;;;;;;;2.53;2.40;;;;;;;6.21;100.00;99623.50;6342918;27;20590;-66
2024/04/16 04:40:03;;;;;;;6.77;3.23;;;;;;;6.07;100.00;99631.91;6346750;27;20276;-67
2024/04/16 04:43:26;;;;;;;6.47;3.67;;;;;;;6.11;100.00;99630.66;6352811;27;20606;-68
2024/04/16 04:46:50;;;;;;;4.43;4.00;;;;;;;6.21;100.00;99636.88;6337986;27;20313;-69
2024/04/16 04:50:10;;;;;;;3.60;2.43;;;;;;;6.34;100.00;99642.78;6357763;27;20301;-69
2024/04/16 04:53:33;;;;;;;3.93;3.33;;;;;;;6.30;100.00;99648.59;6355979;27;20751;-69
2024/04/16 04:56:53;;;;;;;4.70;3.60;;;;;;;6.24;100.00;99643.75;6346390;27;20264;-69
2024/04/16 05:00:15;;;;;;;3.57;3.27;;;;;;;6.27;100.00;99649.72;6339036;27;20320;-69
2024/04/16 05:03:41;;;;;;;4.67;2.77;;;;;;;6.25;100.00;99651.69;6348933;27;20278;-69
2024/04/16 05:07:03;;;;;;;3.57;3.27;;;;;;;6.25;100.00;99640.97;6335698;27;20268;-69
2024/04/16 05:10:26;;;;;;;4.13;3.83;;;;;;;6.28;100.00;99646.03;6341217;27;21104;-68
2024/04/16 05:13:48;;;;;;;5.27;4.73;;;;;;;6.41;100.00;99649.28;6350727;27;20273;-69
2024/04/16 05:17:12;;;;;;;3.53;2.77;;;;;;;6.30;100.00;99649.41;6341891;27;20298;-69
2024/04/16 05:20:37;;;;;;;5.67;4.67;;;;;;;6.33;100.00;99654.50;6351888;27;20897;-69
2024/04/16 05:24:02;;;;;;;3.77;3.47;;;;;;;6.35;100.00;99657.03;6347767;27;23523;-69
2024/04/16 05:27:22;;;;;;;7.23;4.70;;;;;;;6.26;100.00;99655.16;6346592;27;20734;-68
2024/04/16 05:30:44;;;;;;;4.17;3.77;;;;;;;6.36;100.00;99653.38;6341434;27;20276;-68
2024/04/16 05:34:06;;;;;;;4.10;3.70;;;;;;;6.38;100.00;99649.56;6356295;27;20681;-69
2024/04/16 05:37:31;;;;;;;3.90;3.50;;;;;;;6.45;100.00;99658.72;6353872;27;20278;-69
2024/04/16 05:40:51;;;;;;;4.77;4.37;;;;;;;6.28;100.00;99653.19;6345702;27;20260;-69
2024/04/16 05:44:13;;;;;;;3.80;3.47;;;;;;;6.34;100.00;99650.81;6354658;27;20276;-69
2024/04/16 05:47:36;;;;;;;2.80;2.67;;;;;;;6.37;100.00;99655.91;6338996;27;20277;-71
2024/04/16 05:50:58;;;;;;;4.67;3.20;;;;;;;6.49;100.00;99653.94;6345915;27;20328;-68
2024/04/16 05:54:21;;;;;;;4.37;3.10;;;;;;;6.47;100.00;99655.91;6349608;27;20258;-69
2024/04/16 05:57:43;;;;;;;3.97;3.23;;;;;;;6.65;100.00;99659.59;6343870;27;20261;-69
2024/04/16 06:01:07;;;;;;;5.40;4.30;;;;;;;6.58;100.00;99652.25;6338515;27;20297;-69
2024/04/16 06:04:27;;;;;;;3.93;3.37;;;;;;;6.71;100.00;99655.50;6342580;27;20293;-69
2024/04/16 06:07:50;;;;;;;6.00;5.37;;;;;;;6.81;100.00;99661.69;6333238;27;20354;-68
2024/04/16 06:11:15;;;;;;;6.20;3.80;;;;;;;6.71;100.00;99667.06;6334808;27;20269;-68
2024/04/16 06:14:38;;;;;;;2.77;2.40;;;;;;;6.68;100.00;99669.16;6348946;27;20600;-69
2024/04/16 06:18:01;;;;;;;3.70;2.83;;;;;;;6.70;100.00;99673.38;6330924;27;20273;-69
2024/04/16 06:21:23;;;;;;;6.97;3.13;;;;;;;6.67;100.00;99668.31;6327542;27;20512;-68
2024/04/16 06:24:43;;;;;;;2.57;2.37;;;;;;;6.46;100.00;99672.97;6347429;27;20507;-70
2024/04/16 06:28:08;;;;;;;2.77;2.57;;;;;;;6.60;100.00;99691.28;6334587;27;20359;-70
2024/04/16 06:31:30;;;;;;;3.00;2.80;;;;;;;6.33;100.00;99689.28;6338201;27;20285;-69
2024/04/16 06:34:53;;;;;;;2.40;2.20;;;;;;;6.60;100.00;99685.06;6312654;27;20309;-69
2024/04/16 06:38:13;;;;;;;3.50;2.50;;;;;;;6.66;100.00;99685.34;6321932;27;20274;-70
2024/04/16 06:41:35;;;;;;;2.30;2.10;;;;;;;6.68;100.00;99679.84;6352688;27;20365;-69
2024/04/16 06:44:57;;;;;;;3.47;2.50;;;;;;;6.49;100.00;99678.03;6364501;27;20265;-69
2024/04/16 06:48:19;;;;;;;4.13;2.60;;;;;;;6.60;100.00;99685.06;6348214;27;20269;-69
2024/04/16 06:51:41;;;;;;;4.93;3.03;;;;;;;6.64;100.00;99694.50;6353756;27;20265;-69
2024/04/16 06:55:01;;;;;;;4.30;3.53;;;;;;;6.68;100.00;99690.56;6351007;27;20273;-69
2024/04/16 06:58:24;;;;;;;3.10;2.90;;;;;;;6.92;100.00;99688.31;6379059;27;20288;-69
2024/04/16 07:01:46;;;;;;;3.73;3.43;;;;;;;6.99;100.00;99692.09;6337933;27;20833;-69
2024/04/16 07:05:09;;;;;;;4.33;3.23;;;;;;;7.17;100.00;99693.09;6344471;27;20277;-70
2024/04/16 07:08:29;;;;;;;2.93;2.73;;;;;;;7.02;100.00;99702.53;6352421;27;20269;-69
2024/04/16 07:11:52;;;;;;;2.97;2.77;;;;;;;7.35;100.00;99704.75;6351080;27;20501;-69
2024/04/16 07:15:15;;;;;;;4.10;3.20;;;;;;;7.21;100.00;99700.69;6345752;27;20817;-69
2024/04/16 07:18:40;;;;;;;3.97;3.50;;;;;;;7.46;100.00;99699.22;6350365;27;20272;-69
2024/04/16 07:22:02;;;;;;;6.60;4.33;;;;;;;7.52;100.00;99711.19;6343097;27;20273;-69
2024/04/16 07:25:22;;;;;;;4.73;4.23;;;;;;;7.23;100.00;99711.28;6345137;27;21221;-69
2024/04/16 07:28:45;;;;;;;6.33;5.40;;;;;;;7.63;100.00;99721.75;6355052;27;20265;-69
2024/04/16 07:32:05;;;;;;;5.43;4.50;;;;;;;7.54;100.00;99714.56;6347525;27;20792;-69
2024/04/16 07:35:30;;;;;;;4.70;4.20;;;;;;;7.40;100.00;99723.94;6348574;27;20280;-69
2024/04/16 07:38:53;;;;;;;8.70;5.30;;;;;;;7.57;100.00;99725.03;6358885;27;22353;-70
2024/04/16 07:42:13;;;;;;;7.03;4.90;;;;;;;7.28;100.00;99733.09;6340096;27;20265;-68
2024/04/16 07:45:35;;;;;;;4.60;3.93;;;;;;;7.22;100.00;99739.03;6347765;27;20803;-69
2024/04/16 07:48:58;;;;;;;3.70;3.40;;;;;;;7.36;100.00;99733.25;6352784;27;20257;-69
2024/04/16 07:52:23;;;;;;;4.87;4.33;;;;;;;7.36;100.00;99743.13;6363102;27;20269;-69
2024/04/16 07:55:46;;;;;;;9.43;4.20;;;;;;;7.31;100.00;99745.38;6348612;27;20281;-69
2024/04/16 07:59:06;;;;;;;3.53;3.13;;;;;;;7.60;100.00;99756.91;6352829;27;20269;-69
2024/04/16 08:02:28;;;;;;;4.00;3.20;;;;;;;7.40;100.00;99752.56;6327146;27;20270;-69
2024/04/16 08:05:51;;;;;;;4.07;3.53;;;;;;;7.51;100.00;99768.50;6344127;27;20264;-69
2024/04/16 08:09:13;;;;;;;6.60;3.90;;;;;;;7.37;100.00;99768.94;6355101;27;20277;-69
2024/04/16 08:12:36;;;;;;;4.60;4.20;;;;;;;7.80;100.00;99764.75;6338663;27;20266;-69
2024/04/16 08:15:56;;;;;;;3.80;3.40;;;;;;;8.07;100.00;99767.47;6332037;27;20273;-70
2024/04/16 08:19:18;;;;;;;3.57;3.30;;;;;;;8.16;100.00;99762.22;6356369;27;20277;-68
2024/04/16 08:22:40;;;;;;;6.00;5.27;;;;;;;8.22;100.00;99775.06;6336849;27;20269;-69
2024/04/16 08:26:07;;;;;;;3.60;3.10;;;;;;;8.25;100.00;99780.13;6349942;27;20273;-69
2024/04/16 08:29:27;;;;;;;4.37;3.07;;;;;;;8.03;100.00;99781.34;6350415;27;20269;-69
2024/04/16 08:32:49;;;;;;;3.37;3.07;;;;;;;8.18;100.00;99795.16;6316928;27;20269;-69
2024/04/16 08:36:11;;;;;;;6.30;3.00;;;;;;;8.22;100.00;99792.00;6302177;27;20262;-69
2024/04/16 08:39:33;;;;;;;5.50;4.00;;;;;;;8.53;100.00;99790.75;6313331;27;20273;-69
2024/04/16 08:42:59;;;;;;;4.93;4.43;;;;;;;8.81;100.00;99797.78;6352935;27;20280;-70
2024/04/16 08:46:22;;;;;;;6.53;3.80;;;;;;;9.33;100.00;99796.13;6318502;27;20320;-69
2024/04/16 08:49:46;;;;;;;7.53;3.83;;;;;;;9.14;100.00;99804.34;6358879;27;20269;-69
2024/04/16 08:53:06;;;;;;;3.93;3.43;;;;;;;9.38;100.00;99814.47;6353908;27;20277;-69
2024/04/16 08:56:28;;;;;;;4.17;3.67;;;;;;;9.64;100.00;99799.22;6350676;27;20574;-70
2024/04/16 08:59:51;;;;;;;10.43;3.97;;;;;;;10.22;100.00;99797.59;6353972;27;20593;-69
2024/04/16 09:03:13;;;;;;;4.03;3.57;;;;;;;10.12;100.00;99806.81;6346762;27;20324;-69
2024/04/16 09:06:36;;;;;;;3.63;2.63;;;;;;;10.03;100.00;99810.44;6343571;27;20336;-69
2024/04/16 09:09:55;;;;;;;3.77;3.17;;;;;;;10.15;100.00;99810.03;6356985;27;22652;-69
2024/04/16 09:13:18;;;;;;;3.50;2.37;;;;;;;10.06;100.00;99815.50;6352000;27;20273;-70
2024/04/16 09:16:44;;;;;;;3.90;2.47;;;;;;;9.75;100.00;99809.75;6349056;27;20261;-70
2024/04/16 09:20:05;;;;;;;5.97;3.00;;;;;;;9.37;100.00;99820.84;6350908;27;20285;-69
2024/04/16 09:23:28;;;;;;;3.90;3.23;;;;;;;9.04;100.00;99827.75;6355119;27;20277;-69
2024/04/16 09:26:50;;;;;;;4.83;2.83;;;;;;;9.18;100.00;99831.78;6351552;27;21025;-69
2024/04/16 09:30:14;;;;;;;4.00;2.90;;;;;;;9.71;100.00;99829.03;6350766;27;20273;-69
2024/04/16 09:33:39;;;;;;;4.27;3.73;;;;;;;9.64;100.00;99842.28;6354842;27;20277;-69
2024/04/16 09:37:02;;;;;;;4.50;3.60;;;;;;;9.41;100.00;99841.91;6324541;27;20564;-70
2024/04/16 09:40:25;;;;;;;4.97;4.40;;;;;;;9.56;100.00;99850.28;6364720;27;20261;-68
2024/04/16 09:43:47;;;;;;;13.20;4.90;;;;;;;10.02;100.00;99849.97;6363350;27;20357;-68
2024/04/16 09:47:11;;;;;;;5.17;4.27;;;;;;;10.20;100.00;99850.78;6354449;27;20486;-70
2024/04/16 09:50:37;;;;;;;6.33;4.13;;;;;;;9.99;100.00;99855.66;6376834;27;20293;-70
2024/04/16 09:54:00;;;;;;;3.77;3.40;;;;;;;10.45;100.00;99846.41;6362151;27;20284;-69
2024/04/16 09:57:21;;;;;;;4.20;3.80;;;;;;;10.78;100.00;99850.94;6360970;27;20274;-69
2024/04/16 10:00:44;;;;;;;7.43;4.63;;;;;;;11.04;100.00;99851.69;6345948;27;20257;-70
2024/04/16 10:04:08;;;;;;;6.87;4.00;;;;;;;11.26;100.00;99848.34;6355456;27;20281;-69
2024/04/16 10:07:31;;;;;;;5.03;3.47;;;;;;;11.08;100.00;99857.59;6346440;27;20628;-70
2024/04/16 10:10:55;;;;;;;3.40;3.10;;;;;;;10.74;100.00;99864.91;6358346;27;20261;-69
2024/04/16 10:14:14;;;;;;;4.27;3.97;;;;;;;10.33;100.00;99863.81;6346070;27;23827;-69
2024/04/16 10:17:52;;;;;;;4.13;3.47;;;;;;;10.44;100.00;99869.81;6339669;27;20285;-70
2024/04/16 10:21:25;;;;;;;7.40;2.90;;;;;;;10.67;100.00;99866.53;6363185;27;20277;-69
2024/04/16 10:24:58;;;;;;;3.03;2.80;;;;;;;10.80;100.00;99866.94;6334691;27;20272;-69
2024/04/16 10:28:25;;;;;;;4.03;2.80;;;;;;;11.22;100.00;99867.75;6363617;27;20258;-70
2024/04/16 10:31:53;;;;;;;3.60;2.77;;;;;;;11.47;100.00;99865.94;6349745;27;20303;-70
2024/04/16 10:35:14;;;;;;;4.00;3.27;;;;;;;11.58;100.00;99869.16;6370282;27;20276;-70
2024/04/16 10:38:37;;;;;;;4.63;2.63;;;;;;;11.55;100.00;99877.59;6361872;27;20460;-70
2024/04/16 10:42:03;;;;;;;3.97;2.13;;;;;;;11.57;100.00;99880.13;6353528;27;20261;-70
2024/04/16 10:45:28;;;;;;;3.17;2.20;;;;;;;11.58;100.00;99881.78;6352497;27;20269;-70
2024/04/16 10:48:48;;;;;;;4.27;2.10;;;;;;;11.80;100.00;99883.91;6356432;27;20257;-70
2024/04/16 10:52:12;;;;;;;2.50;2.17;;;;;;;12.57;100.00;99881.44;6351227;27;20265;-69
2024/04/16 10:55:34;;;;;;;2.37;2.17;;;;;;;12.71;100.00;99880.72;6355528;27;20293;-69
2024/04/16 10:58:59;;;;;;;4.90;2.13;;;;;;;13.04;100.00;99886.84;6345986;27;20320;-70
2024/04/16 11:02:22;;;;;;;2.77;1.63;;;;;;;12.98;100.00;99892.09;6332841;27;20277;-70
2024/04/16 11:05:45;;;;;;;3.33;1.93;;;;;;;12.86;100.00;99894.34;6351452;27;20273;-70
2024/04/16 11:09:05;;;;;;;4.57;1.50;;;;;;;12.81;100.00;99894.00;6349392;27;20281;-70
2024/04/16 11:12:27;;;;;;;4.20;1.30;;;;;;;12.55;100.00;99893.44;6351148;27;20296;-70
2024/04/16 11:15:51;;;;;;;2.70;1.53;;;;;;;12.86;100.00;99899.75;6350099;27;20268;-70
2024/04/16 11:19:14;;;;;;;3.30;1.50;;;;;;;12.81;100.00;99904.84;6349685;27;20265;-70
2024/04/16 11:22:36;;;;;;;2.50;1.57;;;;;;;12.85;100.00;99904.31;6343236;27;20289;-70
2024/04/16 11:25:59;;;;;;;4.63;2.13;;;;;;;12.89;100.00;99910.25;6346131;27;22982;-70
2024/04/16 11:29:21;;;;;;;3.50;1.93;;;;;;;12.91;100.00;99907.34;6358080;27;20265;-70
2024/04/16 11:32:43;;;;;;;4.33;2.13;;;;;;;12.68;100.00;99918.91;6346466;27;20336;-70
2024/04/16 11:36:07;;;;;;;1.30;1.20;;;;;;;12.61;100.00;99926.03;6346221;27;20281;-70
2024/04/16 11:39:29;;;;;;;2.43;1.17;;;;;;;12.58;100.00;99922.81;6356378;27;20286;-70
2024/04/16 11:42:52;;;;;;;4.33;1.47;;;;;;;12.34;100.00;99926.41;6345008;27;20261;-71
2024/04/16 11:46:13;;;;;;;1.40;1.30;;;;;;;12.41;100.00;99926.59;6343661;27;20288;-70
2024/04/16 11:49:40;;;;;;;1.33;1.17;;;;;;;12.37;100.00;99936.06;6351731;27;20288;-70
2024/04/16 11:53:03;;;;;;;2.53;1.43;;;;;;;11.85;100.00;99947.19;6341860;27;20314;-70
2024/04/16 11:56:22;;;;;;;2.23;1.50;;;;;;;11.83;100.00;99953.75;6344733;27;20268;-70
2024/04/16 11:59:47;;;;;;;2.23;1.60;;;;;;;11.62;100.00;99965.00;6356827;27;20320;-69
2024/04/16 12:03:09;;;;;;;3.93;1.77;;;;;;;11.69;100.00;99965.22;6341781;27;20269;-70
2024/04/16 12:06:32;;;;;;;2.83;1.73;;;;;;;11.55;100.00;99972.06;6340354;27;20285;-69
2024/04/16 12:09:54;;;;;;;1.70;1.00;;;;;;;11.77;100.00;99976.03;6357702;27;20273;-69
2024/04/16 12:13:17;;;;;;;1.17;1.17;;;;;;;12.27;100.00;99974.03;6356453;27;20273;-70
2024/04/16 12:16:40;;;;;;;1.53;1.23;;;;;;;13.34;100.00;99980.78;6348168;27;20277;-69
2024/04/16 12:20:03;;;;;;;1.30;1.20;;;;;;;13.40;100.00;99971.97;6361410;27;20284;-70
2024/04/16 12:23:29;;;;;;;1.50;1.40;;;;;;;13.60;100.00;99980.50;6328644;27;20477;-69
2024/04/16 12:26:49;;;;;;;1.53;1.17;;;;;;;12.88;100.00;99980.72;6313506;27;20296;-70
2024/04/16 12:30:12;;;;;;;1.73;1.63;;;;;;;12.16;100.00;99996.00;6351716;27;20689;-69
2024/04/16 12:33:32;;;;;;;0.73;0.73;;;;;;;10.97;100.00;100006.22;6353740;27;20328;-69
2024/04/16 12:36:55;;;;;;;0.53;0.53;;;;;;;10.34;100.00;100013.69;6347266;27;20729;-70
2024/04/16 12:40:20;;;;;;;9.30;8.33;;;;;;;10.08;100.00;100020.81;6346008;27;20261;-70
2024/04/16 12:43:42;;;;;;;1.73;1.13;;;;;;;10.23;100.00;100022.88;6365332;27;20281;-69
2024/04/16 12:47:08;;;;;;;0.90;0.90;;;;;;;10.44;100.00;100031.47;6345889;27;20349;-69
2024/04/16 12:50:30;;;;;;;1.73;1.27;;;;;;;10.56;100.00;100032.06;6344992;27;20269;-69
2024/04/16 12:53:52;;;;;;;1.87;1.27;;;;;;;10.39;100.00;100041.84;6313070;27;20262;-69
2024/04/16 12:57:17;;;;;;;0.90;0.90;;;;;;;10.18;100.00;100038.63;6313587;27;20275;-68
2024/04/16 13:00:40;;;;;;;1.90;1.70;;;;;;;10.18;100.00;100041.31;6315340;27;20273;-69
2024/04/16 13:04:00;;;;;;;1.00;1.00;;;;;;;10.44;100.00;100046.78;6351425;27;20285;-68
2024/04/16 13:07:22;;;;;;;1.03;1.03;;;;;;;10.59;100.00;100047.94;6342076;27;20703;-68
2024/04/16 13:10:46;;;;;;;1.20;1.10;;;;;;;10.36;100.00;100052.97;6344040;27;20277;-68
2024/04/16 13:14:12;;;;;;;1.47;1.37;;;;;;;10.06;100.00;100056.00;6357997;27;20991;-69
2024/04/16 13:17:34;;;;;;;0.70;0.70;;;;;;;9.75;100.00;100057.34;6349367;27;20292;-68
2024/04/16 13:20:54;;;;;;;2.03;1.30;;;;;;;9.73;100.00;100070.09;6342326;27;20269;-68
2024/04/16 13:24:17;;;;;;;1.60;0.90;;;;;;;9.59;100.00;100068.78;6353262;27;20276;-69
2024/04/16 13:27:36;;;;;;;0.80;0.80;;;;;;;9.69;100.00;100076.78;6347884;27;20292;-69
2024/04/16 13:31:03;;;;;;;0.50;0.50;;;;;;;9.62;100.00;100081.06;6346006;27;20273;-68
2024/04/16 13:34:26;;;;;;;0.80;0.67;;;;;;;9.65;100.00;100087.00;6365365;27;20750;-69
2024/04/16 13:37:48;;;;;;;1.03;0.83;;;;;;;9.63;100.00;100083.63;6353548;27;20285;-69
2024/04/16 13:41:10;;;;;;;0.63;0.63;;;;;;;9.82;100.00;100095.28;6351916;27;20626;-68
2024/04/16 13:44:32;;;;;;;1.10;1.07;;;;;;;9.88;100.00;100090.13;6363675;27;20316;-70
2024/04/16 13:47:55;;;;;;;0.63;0.63;;;;;;;9.81;100.00;100104.31;6339271;27;20600;-69
2024/04/16 13:51:17;;;;;;;0.90;0.90;;;;;;;9.81;100.00;100101.63;6355390;27;20261;-70
2024/04/16 13:54:37;;;;;;;0.83;0.83;;;;;;;10.01;100.00;100111.31;6365113;27;20273;-69
2024/04/16 13:58:01;;;;;;;0.90;0.87;;;;;;;10.22;100.00;100109.22;6361437;27;20272;-69
2024/04/16 14:01:24;;;;;;;1.87;0.97;;;;;;;10.56;100.00;100117.44;6352946;27;20277;-69
2024/04/16 14:04:49;;;;;;;1.53;0.77;;;;;;;11.09;100.00;100113.69;6358495;27;20277;-69
2024/04/16 14:08:09;;;;;;;0.70;0.70;;;;;;;11.45;100.00;100113.56;6354128;27;20265;-69
2024/04/16 14:11:31;;;;;;;0.70;0.70;;;;;;;11.32;100.00;100114.00;6321848;27;20266;-69
2024/04/16 14:14:53;;;;;;;0.80;0.80;;;;;;;11.22;100.00;100118.66;6299019;27;20792;-69
2024/04/16 14:18:13;;;;;;;0.70;0.70;;;;;;;10.99;100.00;100126.41;6311027;27;20282;-69
2024/04/16 14:21:38;;;;;;;1.13;1.10;;;;;;;11.18;100.00;100125.38;6305142;27;20262;-70
2024/04/16 14:24:57;;;;;;;1.10;1.00;;;;;;;11.23;100.00;100131.13;6581457;22;20279;-70
2024/04/16 14:28:20;;;;;;;1.17;1.07;;;;;;;11.42;100.00;100135.47;6265870;27;20275;-70
2024/04/16 14:31:43;;;;;;;1.13;1.13;;;;;;;11.65;100.00;100137.47;6272718;27;20271;-69
2024/04/16 14:35:04;;;;;;;1.17;1.07;;;;;;;12.10;100.00;100144.44;6277498;27;20275;-70
2024/04/16 14:38:29;;;;;;;1.37;1.27;;;;;;;12.53;100.00;100141.50;6279943;27;20275;-70
2024/04/16 14:41:51;;;;;;;1.80;1.70;;;;;;;12.47;100.00;100137.63;6289344;27;20298;-69
2024/04/16 14:45:11;;;;;;;1.53;1.43;;;;;;;13.05;100.00;100142.91;6280281;27;20267;-69
2024/04/16 14:48:34;;;;;;;2.93;1.30;;;;;;;13.05;100.00;100139.34;6217782;27;20359;-70
2024/04/16 14:51:56;;;;;;;1.83;1.73;;;;;;;12.66;100.00;100142.69;6228324;27;20284;-70
2024/04/16 14:55:21;;;;;;;1.90;1.80;;;;;;;12.46;100.00;100143.16;6200804;27;20265;-69
2024/04/16 14:58:44;;;;;;;1.53;1.40;;;;;;;12.57;100.00;100154.53;6279828;27;20515;-69
2024/04/16 15:02:04;;;;;;;2.07;1.70;;;;;;;12.52;100.00;100159.56;6256712;27;20295;-69
2024/04/16 15:05:26;;;;;;;2.20;1.37;;;;;;;12.55;100.00;100161.94;6247204;27;20780;-69
2024/04/16 15:08:49;;;;;;;2.10;1.50;;;;;;;12.37;100.00;100165.81;6275922;27;20275;-69
2024/04/16 15:12:17;;;;;;;2.80;1.30;;;;;;;11.72;100.00;100180.91;6258132;27;20276;-69
2024/04/16 15:15:36;;;;;;;1.53;1.43;;;;;;;11.24;100.00;100190.31;6262312;27;20274;-68
2024/04/16 15:18:59;;;;;;;2.73;1.93;;;;;;;10.70;100.00;100200.47;6273513;27;20604;-70
2024/04/16 15:22:22;;;;;;;1.70;1.50;;;;;;;10.38;100.00;100201.84;6248828;27;20638;-70
2024/04/16 15:25:42;;;;;;;2.37;2.17;;;;;;;10.27;100.00;100207.41;6244526;27;20286;-69
2024/04/16 15:29:07;;;;;;;1.80;1.53;;;;;;;10.25;100.00;100212.13;6276573;27;20271;-71
2024/04/16 15:32:30;;;;;;;11.47;10.37;;;;;;;10.26;100.00;100205.72;6263018;27;20315;-70
2024/04/16 15:35:51;;;;;;;4.03;3.63;;;;;;;10.41;100.00;100216.81;6267804;27;20286;-69
2024/04/16 15:39:13;;;;;;;2.17;1.97;;;;;;;10.51;100.00;100211.41;6274514;27;20268;-70
2024/04/16 15:42:36;;;;;;;1.67;1.57;;;;;;;10.76;100.00;100226.81;6259908;27;20278;-70
2024/04/16 15:45:59;;;;;;;1.23;1.13;;;;;;;10.93;100.00;100216.03;6215630;27;20271;-70
2024/04/16 15:49:22;;;;;;;1.80;1.33;;;;;;;11.07;100.00;100223.59;6225865;27;20348;-71